Home > Products > Valid Products > TAF

000
FTUS43 KPAH 310500
TAFEVV
TAF
KEVV 310520Z 3106/0106 VRB03KT P6SM -SHRA OVC050
      TEMPO 3108/3112 BKN025
     FM311200 32008KT P6SM BKN020
     FM311600 32015G25KT P6SM OVC030
     FM312000 32017G27KT P6SM OVC045=



000
FTUS43 KPAH 310500
TAFPAH
TAF
KPAH 310520Z 3106/0106 VRB03KT P6SM VCSH OVC070
     FM311000 35005KT P6SM OVC035
     FM311400 35012G20KT P6SM OVC025
     FM311800 34018G28KT P6SM BKN045
     FM312300 34010KT P6SM SKC=



000
FTUS43 KPAH 310500
TAFCGI
TAF
KCGI 310520Z 3106/0106 VRB03KT P6SM BKN060
     FM310900 35006KT P6SM OVC035
     FM311300 35012G18KT P6SM OVC025
     FM311700 34020G27KT P6SM BKN045
     FM312300 35010KT P6SM SKC=



000
FTUS43 KPAH 302300
TAFPAH
TAF
KPAH 302325Z 3100/3124 15003KT P6SM -SHRA OVC080
     FM310800 36005KT P6SM OVC035
     FM311200 36012G18KT P6SM OVC025
     FM311700 34018G28KT P6SM BKN050=



000
FTUS43 KPAH 302300
TAFCGI
TAF
KCGI 302325Z 3100/3124 14003KT P6SM -SHRA OVC070
     FM310600 35005KT P6SM OVC035
     FM311100 35012G18KT P6SM OVC015
     FM311600 34020G27KT P6SM BKN040=



000
FTUS43 KPAH 302300
TAFEVV
TAF
KEVV 302325Z 3100/3124 34003KT P6SM BKN100
     FM310300 VRB03KT P6SM -SHRA OVC060
     FM310900 30004KT P6SM BKN040
     FM311300 32012G20KT P6SM OVC025
     FM311900 33017G27KT P6SM BKN050=



000
FTUS43 KPAH 302200 AAA
TAFCGI
TAF AMD
KCGI 302231Z 3023/3118 17004KT P6SM OVC100
      TEMPO 3023/3102 4SM SHRA OVC060
     FM310200 12004KT P6SM OVC060
     FM310600 36005KT P6SM OVC060
      TEMPO 3114/3116 BKN015 OVC050=



000
FTUS43 KPAH 301700 RRA
TAFEVV
TAF
KEVV 301740Z 3018/3118 20001KT P6SM SKC
     FM302330 01004KT P6SM BKN090 OVC120
     FM310300 VRB03KT P6SM VCSH SCT040 OVC080
     FM310900 36005KT P6SM BKN040 OVC080
     FM311200 36005KT P6SM OVC040
      TEMPO 3114/3116 BKN016 OVC040=



000
FTUS43 KPAH 301700 RRA
TAFPAH
TAF
KPAH 301740Z 3018/3118 19003KT P6SM SKC
     FM302130 18006KT P6SM SCT090 BKN200
     FM310200 VRB03KT P6SM VCSH BKN080
     FM310830 36005KT P6SM OVC040
     FM311200 36005KT P6SM OVC035
      TEMPO 3114/3116 BKN016 OVC045=



000
FTUS43 KPAH 301700 RRA
TAFCGI
TAF
KCGI 301740Z 3018/3118 19003KT P6SM SKC
     FM302100 18006KT P6SM SCT120 BKN190
     FM310000 16004KT P6SM VCSH BKN070
     FM310200 12004KT P6SM OVC060
     FM310600 36005KT P6SM OVC060
      TEMPO 3114/3116 BKN015 OVC050=



000
FTUS43 KPAH 301100
TAFPAH
TAF
KPAH 301126Z 3012/3112 18003KT P6SM SKC
      TEMPO 3012/3013 4SM BR BCFG
     FM301600 18004KT P6SM BKN100
     FM310500 02004KT P6SM BKN050=



000
FTUS43 KPAH 301100
TAFEVV
TAF
KEVV 301126Z 3012/3112 17003KT P6SM SKC
     FM301500 19004KT P6SM BKN100
     FM310200 02003KT P6SM BKN040 PROB30 3102/3108 -SHRA=



000
FTUS43 KPAH 301100
TAFCGI
TAF
KCGI 301126Z 3012/3112 19003KT P6SM SKC
      TEMPO 3012/3013 4SM BR BCFG
     FM301500 19004KT P6SM BKN100
     FM310400 35004KT P6SM BKN050=



000
FTUS43 KPAH 300500
TAFCGI
TAF
KCGI 300527Z 3006/3106 00000KT P6SM SKC
      TEMPO 3009/3013 4SM BR
     FM301500 18006KT P6SM SCT100 BKN250
     FM310200 17003KT P6SM SCT050 OVC100=



000
FTUS43 KPAH 300500
TAFPAH
TAF
KPAH 300527Z 3006/3106 00000KT P6SM SKC
     FM301500 17004KT P6SM SCT100 BKN250
     FM310300 17002KT P6SM SCT050 OVC100=



000
FTUS43 KPAH 300500
TAFEVV
TAF
KEVV 300527Z 3006/3106 VRB03KT P6SM SKC
     FM301500 17003KT P6SM SCT100 BKN250
     FM310300 07002KT P6SM VCSH BKN040 OVC100=



000
FTUS43 KPAH 292300
TAFEVV
TAF
KEVV 292320Z 3000/3024 33003KT P6SM SKC
     FM301500 17003KT P6SM SCT100 BKN250=



000
FTUS43 KPAH 292300
TAFCGI
TAF
KCGI 292320Z 3000/3024 36003KT P6SM SKC
     FM300800 00000KT 4SM BR BCFG SKC
     FM301500 18006KT P6SM SCT100 BKN250=



000
FTUS43 KPAH 292300
TAFPAH
TAF
KPAH 292320Z 3000/3024 36003KT P6SM SKC
     FM301500 17004KT P6SM SCT100 BKN250=



000
FTUS43 KPAH 291700
TAFPAH
TAF
KPAH 291720Z 2918/3018 32007KT P6SM SKC
     FM300000 36003KT P6SM SKC
     FM301500 17004KT P6SM SCT100 BKN250=



000
FTUS43 KPAH 291700
TAFEVV
TAF
KEVV 291720Z 2918/3018 30008KT P6SM SCT040
     FM300000 33003KT P6SM SCT040
     FM300600 00000KT P6SM SKC
     FM301500 17003KT P6SM SCT100 BKN250=



000
FTUS43 KPAH 291700
TAFCGI
TAF
KCGI 291720Z 2918/3018 32008KT P6SM SKC
     FM300000 36003KT P6SM SKC
     FM300800 00000KT 4SM BR BCFG SCT250
     FM301500 18006KT P6SM SCT100 BKN250=



000
FTUS43 KPAH 291300 AAA
TAFEVV
TAF AMD
KEVV 291301Z 2913/3012 31005KT P6SM SKC
     FM291500 29009KT P6SM SCT040
     FM300000 33003KT P6SM SCT035=



000
FTUS43 KPAH 291300 AAA
TAFPAH
TAF AMD
KPAH 291300Z 2913/3012 00000KT P6SM SKC
     FM291500 31008KT P6SM SKC
     FM300000 35003KT P6SM SKC=



000
FTUS43 KPAH 291200 AAA
TAFCGI
TAF AMD
KCGI 291259Z 2913/3012 00000KT 6SM BR SCT001
     FM291600 32009KT P6SM SKC
     FM300000 35003KT P6SM SKC
     FM300800 00000KT 3SM BR BCFG SKC=



000
FTUS43 KPAH 291100
TAFCGI
TAF
KCGI 291131Z 2912/3012 00000KT 1/4SM FG VV001
      TEMPO 2913/2915 3SM BR SCT001
     FM291500 33003KT 6SM HZ SKC
     FM291700 32009KT P6SM SKC
     FM300000 35003KT P6SM SKC
     FM300800 00000KT 3SM BR BCFG SKC=



000
FTUS43 KPAH 291100
TAFPAH
TAF
KPAH 291131Z 2912/3012 00000KT 3SM BR BCFG SKC
     FM291400 29004KT 6SM BR SKC
     FM291600 31008KT P6SM SKC
     FM300000 35003KT P6SM SKC=



000
FTUS43 KPAH 291100
TAFEVV
TAF
KEVV 291131Z 2912/3012 26003KT P6SM SKC
     FM291500 29009KT P6SM SCT040
     FM300000 33003KT P6SM SCT035=



000
FTUS43 KPAH 290900 AAB
TAFPAH
TAF AMD
KPAH 290923Z 2909/3006 00000KT 3SM BR MIFG SKC
     FM291400 31008KT P6SM SKC
     FM300000 34002KT P6SM SKC=



000
FTUS43 KPAH 290800 AAA
TAFPAH
TAF AMD
KPAH 290854Z 2909/3006 00000KT 3SM BR SKC
      TEMPO 2909/2913 1SM BR
     FM291400 31008KT P6SM SKC
     FM300000 34002KT P6SM SKC=



000
FTUS43 KPAH 290800 AAC
TAFCGI
TAF AMD
KCGI 290853Z 2909/3006 00000KT 3SM BR SKC
      TEMPO 2909/2912 1/4SM FG VV001
     FM291400 32009KT P6SM SKC
     FM300000 35003KT P6SM SKC=



000
FTUS43 KPAH 290800 AAB
TAFCGI
TAF AMD
KCGI 290802Z 2908/3006 00000KT 3SM BR SKC
      TEMPO 2908/2912 1/4SM FG VV001
     FM291600 32009KT P6SM SKC
     FM300000 35003KT P6SM SKC=



000
FTUS43 KPAH 290500 AAA
TAFCGI
TAF AMD
KCGI 290558Z 2906/3006 00000KT 1SM BR SKC
      TEMPO 2906/2908 1/4SM FG VV001
     FM290800 00000KT 6SM BR SKC
      TEMPO 2908/2912 4SM BR
     FM291600 32009KT P6SM SKC
     FM300000 35003KT P6SM SKC=



000
FTUS43 KPAH 290500
TAFPAH
TAF
KPAH 290533Z 2906/3006 VRB03KT P6SM BKN090 OVC200
     FM290900 00000KT P6SM SCT250
     FM291500 31008KT P6SM SKC
     FM300000 34002KT P6SM SKC=



000
FTUS43 KPAH 290500
TAFCGI
TAF
KCGI 290533Z 2906/3006 00000KT P6SM BKN090 OVC200
     FM290800 00000KT 6SM BR SCT250
      TEMPO 2908/2912 4SM BR
     FM291600 32009KT P6SM SKC
     FM300000 35003KT P6SM SKC=



000
FTUS43 KPAH 290500
TAFEVV
TAF
KEVV 290533Z 2906/3006 28003KT P6SM BKN100 OVC200
     FM290800 31002KT P6SM SCT250
     FM291500 29008KT P6SM SCT050
     FM300000 32003KT P6SM SKC=



000
FTUS43 KPAH 282300
TAFEVV
TAF
KEVV 282326Z 2900/2924 VRB04KT P6SM BKN100 OVC250
     FM290300 31003KT P6SM SCT250
     FM291500 29008KT P6SM SCT050=



000
FTUS43 KPAH 282300
TAFCGI
TAF
KCGI 282326Z 2900/2924 VRB03KT P6SM BKN100 OVC250
     FM290300 35003KT P6SM SCT250
     FM291600 32009KT P6SM SKC=



000
FTUS43 KPAH 282300
TAFPAH
TAF
KPAH 282326Z 2900/2924 VRB03KT P6SM BKN100 OVC250
     FM290400 34003KT P6SM SCT250
     FM291500 31008KT P6SM SKC=



000
FTUS43 KPAH 281700
TAFPAH
TAF
KPAH 281731Z 2818/2918 33007KT P6SM VCSH OVC070
     FM282300 34003KT P6SM SCT100 BKN250
     FM291500 30007KT P6SM SKC=



000
FTUS43 KPAH 281700
TAFCGI
TAF
KCGI 281731Z 2818/2918 34008KT P6SM SCT060 BKN250
     FM290000 35003KT P6SM SCT250
     FM291600 31009KT P6SM SKC=



000
FTUS43 KPAH 281700
TAFEVV
TAF
KEVV 281731Z 2818/2918 29008KT P6SM SCT070 BKN250
     FM282300 30003KT P6SM SCT250
     FM291500 29008KT P6SM SKC=



000
FTUS43 KPAH 281400 AAA
TAFCGI
TAF AMD
KCGI 281408Z 2814/2912 36006KT P6SM VCSH SCT020 OVC035
     FM281500 32009KT P6SM SCT045 BKN080
     FM282100 34007KT P6SM SCT250
     FM290000 34003KT P6SM SCT150=



000
FTUS43 KPAH 281100
TAFEVV
TAF
KEVV 281134Z 2812/2912 22010KT 5SM -SHRA BR SCT020 OVC040
      TEMPO 2812/2816 2SM SHRA BR BKN015
     FM281600 28009KT P6SM SCT035 BKN060
     FM282300 30003KT P6SM SCT150=



000
FTUS43 KPAH 281100
TAFPAH
TAF
KPAH 281134Z 2812/2912 23009KT 5SM -SHRA BR SCT020 OVC040
      TEMPO 2812/2816 2SM SHRA BR BKN015
     FM281600 31007KT P6SM SCT035 BKN060
     FM282300 34002KT P6SM BKN100=



000
FTUS43 KPAH 281100
TAFCGI
TAF
KCGI 281134Z 2812/2912 24010KT 5SM -SHRA BR SCT020 OVC040
      TEMPO 2812/2815 2SM SHRA BR BKN020
     FM281500 30009KT P6SM SCT045 BKN080
     FM282100 34007KT P6SM SCT100
     FM290000 32002KT P6SM SCT150=



    US Dept of Commerce
    National Oceanic and Atmospheric Administration
    National Weather Service
    1325 East West Highway
    Silver Spring, MD 20910
    Page Author: NWS Internet Services Team
Disclaimer
Information Quality
Credits
Glossary
Privacy Policy
Freedom of Information Act (FOIA)
About Us
Career Opportunities